Time;durP1;ratioP1;P1;durP2;ratioP2;P2;SDS_P1;SDS_P2;PMS_P1;PMS_P2;Temp;Humidity;BMP_temperature;BMP_pressure;BME280_temperature;BME280_humidity;BME280_pressure;Samples;Min_cycle;Max_cycle;Signal;HPM_P1;HPM_P2
2023/10/21 00:01:39;;;;;;;6.30;1.90;;;;;;;4.04;100.00;98250.88;105338;1259;74242;-65
2023/10/21 00:04:27;;;;;;;8.00;2.00;;;;;;;4.05;100.00;98254.91;105620;1259;59332;-64
2023/10/21 00:07:15;;;;;;;5.60;1.70;;;;;;;4.03;100.00;98239.45;105589;1256;60804;-63
2023/10/21 00:10:06;;;;;;;5.90;1.90;;;;;;;4.01;100.00;98244.01;105663;1257;72854;-64
2023/10/21 00:12:54;;;;;;;5.30;1.50;;;;;;;4.01;100.00;98239.60;105807;1257;67239;-63
2023/10/21 00:15:43;;;;;;;9.00;2.00;;;;;;;4.04;100.00;98258.34;105898;1253;74462;-64
2023/10/21 00:18:31;;;;;;;6.70;1.70;;;;;;;4.03;100.00;98250.50;105574;1254;59226;-63
2023/10/21 00:21:19;;;;;;;5.30;1.60;;;;;;;4.02;100.00;98254.05;105810;1256;59643;-64
2023/10/21 00:24:08;;;;;;;5.90;1.60;;;;;;;4.02;100.00;98256.04;105778;1253;71413;-67
2023/10/21 00:26:57;;;;;;;5.60;1.80;;;;;;;4.02;100.00;98247.41;105824;1257;69435;-64
2023/10/21 00:29:46;;;;;;;6.00;1.50;;;;;;;4.01;100.00;98226.27;105869;1259;71866;-65
2023/10/21 00:32:34;;;;;;;6.50;1.60;;;;;;;4.00;100.00;98223.00;105836;1254;59445;-63
2023/10/21 00:35:23;;;;;;;7.10;2.00;;;;;;;4.00;100.00;98236.16;105664;1256;59937;-63
2023/10/21 00:38:12;;;;;;;6.10;1.70;;;;;;;4.00;100.00;98247.02;105803;1254;71598;-65
2023/10/21 00:41:00;;;;;;;5.50;1.50;;;;;;;4.00;100.00;98251.40;105596;1256;69379;-66
2023/10/21 00:43:48;;;;;;;5.30;1.70;;;;;;;4.01;100.00;98233.48;105715;1257;73298;-64
2023/10/21 00:46:36;;;;;;;5.20;1.70;;;;;;;4.01;100.00;98237.85;105674;1257;59163;-64
2023/10/21 00:49:28;;;;;;;6.20;1.60;;;;;;;4.02;100.00;98227.95;105814;1253;59446;-67
2023/10/21 00:52:16;;;;;;;4.60;1.40;;;;;;;4.01;100.00;98227.83;105763;1256;71261;-66
2023/10/21 00:55:08;;;;;;;6.60;1.60;;;;;;;4.01;100.00;98224.00;105778;1256;68511;-66
2023/10/21 00:57:56;;;;;;;4.70;1.30;;;;;;;4.00;100.00;98211.41;105840;1257;73249;-64
2023/10/21 01:00:45;;;;;;;5.50;1.60;;;;;;;4.00;100.00;98196.67;105814;1256;59330;-65
2023/10/21 01:03:36;;;;;;;6.90;1.80;;;;;;;4.01;100.00;98208.38;105752;1253;60939;-64
2023/10/21 01:06:24;;;;;;;4.60;1.40;;;;;;;4.00;100.00;98208.23;105817;1253;72733;-62
2023/10/21 01:09:15;;;;;;;6.00;1.90;;;;;;;4.00;100.00;98220.02;105837;1257;68808;-63
2023/10/21 01:12:04;;;;;;;6.30;1.80;;;;;;;3.98;100.00;98229.98;105878;1257;73345;-63
2023/10/21 01:14:53;;;;;;;7.30;1.60;;;;;;;4.01;100.00;98233.65;105997;1256;59332;-64
2023/10/21 01:17:40;;;;;;;4.80;1.60;;;;;;;4.00;100.00;98221.08;105591;1254;60718;-63
2023/10/21 01:20:30;;;;;;;4.60;1.30;;;;;;;3.99;100.00;98224.81;105646;1254;71610;-65
2023/10/21 01:23:18;;;;;;;5.50;1.60;;;;;;;3.98;100.00;98216.31;105630;1257;69342;-66
2023/10/21 01:26:08;;;;;;;6.00;1.70;;;;;;;3.97;100.00;98208.85;105698;1259;74429;-66
2023/10/21 01:28:56;;;;;;;6.20;1.70;;;;;;;3.95;100.00;98203.36;105656;1260;61025;-64
2023/10/21 01:31:44;;;;;;;6.60;1.70;;;;;;;3.96;100.00;98199.66;105626;1260;60838;-65
2023/10/21 01:34:33;;;;;;;4.90;1.40;;;;;;;3.94;100.00;98210.50;105622;1259;73450;-63
2023/10/21 01:37:22;;;;;;;5.70;1.70;;;;;;;3.93;100.00;98212.73;105541;1260;69530;-65
2023/10/21 01:40:13;;;;;;;6.60;2.20;;;;;;;3.93;100.00;98208.96;105766;1254;73113;-64
2023/10/21 01:43:01;;;;;;;5.10;1.60;;;;;;;3.96;100.00;98216.69;105390;1254;59316;-65
2023/10/21 01:45:49;;;;;;;4.80;1.40;;;;;;;3.96;100.00;98208.10;105648;1254;60562;-67
2023/10/21 01:48:37;;;;;;;4.80;1.40;;;;;;;3.96;100.00;98205.25;105742;1259;71695;-64
2023/10/21 01:51:26;;;;;;;4.90;1.60;;;;;;;3.95;100.00;98191.83;105471;1257;69440;-64
2023/10/21 01:54:14;;;;;;;4.90;1.40;;;;;;;3.94;100.00;98181.56;105672;1258;72104;-64
2023/10/21 01:57:03;;;;;;;7.10;1.70;;;;;;;3.93;100.00;98193.20;105412;1263;59359;-65
2023/10/21 01:59:51;;;;;;;5.40;1.60;;;;;;;3.93;100.00;98203.71;105699;1259;59735;-63
2023/10/21 02:02:40;;;;;;;5.10;1.50;;;;;;;3.94;100.00;98200.67;105609;1254;73773;-64
2023/10/21 02:05:29;;;;;;;4.80;1.60;;;;;;;3.92;100.00;98198.66;105653;1255;67508;-65
2023/10/21 02:08:18;;;;;;;5.30;1.40;;;;;;;3.92;100.00;98210.28;105655;1258;74099;-63
2023/10/21 02:11:05;;;;;;;5.40;1.50;;;;;;;3.93;100.00;98201.98;105477;1260;59373;-63
2023/10/21 02:13:53;;;;;;;5.20;1.80;;;;;;;3.92;100.00;98193.41;105530;1254;59981;-63
2023/10/21 02:16:41;;;;;;;6.00;1.70;;;;;;;3.93;100.00;98197.59;105577;1254;72808;-64
2023/10/21 02:19:30;;;;;;;4.70;1.60;;;;;;;3.93;100.00;98179.48;105424;1260;68441;-64
2023/10/21 02:22:18;;;;;;;4.80;1.60;;;;;;;3.92;100.00;98172.05;105388;1258;71925;-63
2023/10/21 02:25:11;;;;;;;4.90;1.50;;;;;;;3.92;100.00;98182.35;105577;1258;59382;-65
2023/10/21 02:28:05;;;;;;;4.90;1.40;;;;;;;3.94;100.00;98185.58;105606;1261;60200;-65
2023/10/21 02:30:55;;;;;;;5.40;1.70;;;;;;;3.96;100.00;98187.56;105700;1254;73650;-66
2023/10/21 02:33:43;;;;;;;5.70;1.70;;;;;;;3.96;100.00;98187.02;104898;1258;1003649;-68
2023/10/21 02:36:31;;;;;;;7.40;1.90;;;;;;;3.97;100.00;98180.45;105791;1254;73028;-66
2023/10/21 02:39:19;;;;;;;4.80;1.60;;;;;;;3.97;100.00;98166.94;105447;1254;59900;-61
2023/10/21 02:42:08;;;;;;;5.30;1.70;;;;;;;3.97;100.00;98165.52;105350;1254;61810;-64
2023/10/21 02:44:57;;;;;;;5.00;1.50;;;;;;;3.99;100.00;98160.81;105486;1254;72772;-67
2023/10/21 02:47:45;;;;;;;5.10;1.50;;;;;;;4.00;100.00;98167.04;105597;1254;67299;-65
2023/10/21 02:50:34;;;;;;;5.20;1.50;;;;;;;3.98;100.00;98165.04;105364;1258;71872;-64
2023/10/21 02:53:22;;;;;;;5.50;1.70;;;;;;;4.00;100.00;98165.39;105619;1258;61127;-63
2023/10/21 02:56:11;;;;;;;5.00;1.80;;;;;;;4.02;100.00;98171.78;105565;1254;59328;-62
2023/10/21 02:58:59;;;;;;;5.40;1.60;;;;;;;4.02;100.00;98171.75;105681;1258;73738;-62
2023/10/21 03:01:48;;;;;;;6.00;1.50;;;;;;;4.02;100.00;98174.89;105285;1258;68322;-62
2023/10/21 03:04:36;;;;;;;5.70;1.50;;;;;;;4.02;100.00;98168.61;105525;1254;73332;-63
2023/10/21 03:07:24;;;;;;;4.80;1.60;;;;;;;4.02;100.00;98171.95;105200;1254;59352;-64
2023/10/21 03:10:13;;;;;;;5.40;1.80;;;;;;;4.02;100.00;98181.26;105422;1254;60817;-65
2023/10/21 03:13:01;;;;;;;5.00;1.50;;;;;;;4.04;100.00;98201.57;105512;1256;73866;-64
2023/10/21 03:15:49;;;;;;;4.90;1.70;;;;;;;4.04;100.00;98192.67;105591;1258;68906;-64
2023/10/21 03:18:38;;;;;;;5.10;1.50;;;;;;;4.06;100.00;98183.05;105612;1254;74301;-65
2023/10/21 03:21:27;;;;;;;5.30;1.70;;;;;;;4.06;100.00;98207.23;105701;1258;59600;-63
2023/10/21 03:24:14;;;;;;;5.50;1.70;;;;;;;4.06;100.00;98203.51;105683;1254;61758;-63
2023/10/21 03:27:03;;;;;;;7.00;2.00;;;;;;;4.07;100.00;98208.21;105389;1256;71579;-65
2023/10/21 03:29:52;;;;;;;5.10;1.80;;;;;;;4.07;100.00;98218.70;105696;1258;69404;-63
2023/10/21 03:32:40;;;;;;;5.00;1.90;;;;;;;4.09;100.00;98223.50;105592;1258;74100;-68
2023/10/21 03:35:30;;;;;;;5.90;1.80;;;;;;;4.07;100.00;98236.77;105593;1255;59275;-64
2023/10/21 03:38:19;;;;;;;5.00;1.80;;;;;;;4.05;100.00;98243.13;105642;1258;60596;-63
2023/10/21 03:41:11;;;;;;;5.60;1.80;;;;;;;4.04;100.00;98241.40;105475;1254;72555;-63
2023/10/21 03:43:59;;;;;;;6.40;2.00;;;;;;;4.02;100.00;98241.60;105428;1256;68472;-64
2023/10/21 03:46:47;;;;;;;7.50;1.80;;;;;;;4.02;100.00;98244.98;105577;1254;73311;-67
2023/10/21 03:49:35;;;;;;;4.80;1.70;;;;;;;3.99;100.00;98233.22;106803;1254;59964;-64
2023/10/21 03:52:23;;;;;;;6.20;2.20;;;;;;;3.97;100.00;98218.84;105577;1254;61665;-64
2023/10/21 03:55:11;;;;;;;5.80;1.90;;;;;;;3.96;100.00;98210.34;105573;1254;71405;-62
2023/10/21 03:58:00;;;;;;;6.90;1.90;;;;;;;3.94;100.00;98203.29;105574;1254;68564;-64
2023/10/21 04:00:50;;;;;;;5.70;1.60;;;;;;;3.93;100.00;98186.48;105568;1254;71816;-65
2023/10/21 04:03:39;;;;;;;6.30;2.00;;;;;;;3.89;100.00;98163.13;105480;1254;59328;-66
2023/10/21 04:06:27;;;;;;;5.50;2.00;;;;;;;3.87;100.00;98141.20;105421;1254;61677;-65
2023/10/21 04:09:15;;;;;;;5.50;1.70;;;;;;;3.86;100.00;98108.52;106983;1254;72890;-64
2023/10/21 04:12:04;;;;;;;5.30;1.90;;;;;;;3.85;100.00;98109.61;105827;1254;66843;-64
2023/10/21 04:14:52;;;;;;;5.30;1.80;;;;;;;3.84;100.00;98127.05;105653;1257;72965;-66
2023/10/21 04:17:40;;;;;;;6.90;1.80;;;;;;;3.84;100.00;98124.39;105673;1257;59255;-66
2023/10/21 04:20:31;;;;;;;7.40;2.20;;;;;;;3.86;100.00;98132.90;105661;1255;59854;-64
2023/10/21 04:23:19;;;;;;;5.10;1.70;;;;;;;3.87;100.00;98129.83;105593;1258;72792;-64
2023/10/21 04:26:07;;;;;;;6.00;2.00;;;;;;;3.88;100.00;98136.79;105650;1258;68322;-67
2023/10/21 04:28:56;;;;;;;5.60;2.10;;;;;;;3.91;100.00;98139.67;105694;1257;73347;-64
2023/10/21 04:31:44;;;;;;;6.30;1.90;;;;;;;3.92;100.00;98148.69;105705;1257;59854;-64
2023/10/21 04:34:32;;;;;;;6.30;2.00;;;;;;;3.94;100.00;98151.71;105759;1254;60671;-66
2023/10/21 04:37:21;;;;;;;6.00;1.90;;;;;;;3.95;100.00;98150.05;105825;1257;73159;-67
2023/10/21 04:40:11;;;;;;;5.90;1.90;;;;;;;3.96;100.00;98150.20;105808;1256;67134;-65
2023/10/21 04:42:59;;;;;;;6.00;1.80;;;;;;;3.97;100.00;98149.75;105770;1257;73324;-67
2023/10/21 04:45:48;;;;;;;6.20;1.80;;;;;;;3.96;100.00;98154.52;105412;1254;60344;-67
2023/10/21 04:48:37;;;;;;;6.50;2.00;;;;;;;3.97;100.00;98157.46;105600;1256;60836;-66
2023/10/21 04:51:25;;;;;;;7.10;2.20;;;;;;;3.96;100.00;98159.61;105780;1253;72561;-66
2023/10/21 04:54:13;;;;;;;6.10;2.00;;;;;;;3.97;100.00;98174.13;105737;1255;68743;-67
2023/10/21 04:57:02;;;;;;;6.00;2.00;;;;;;;3.96;100.00;98172.28;105734;1256;73169;-68
2023/10/21 04:59:50;;;;;;;6.20;2.00;;;;;;;3.96;100.00;98169.09;105669;1257;59353;-65
2023/10/21 05:02:38;;;;;;;6.70;2.00;;;;;;;3.97;100.00;98178.68;105620;1256;59750;-63
2023/10/21 05:05:27;;;;;;;5.00;1.60;;;;;;;3.96;100.00;98179.78;105944;1254;70966;-64
2023/10/21 05:08:15;;;;;;;5.90;1.90;;;;;;;3.96;100.00;98186.48;105755;1256;67333;-63
2023/10/21 05:11:03;;;;;;;5.90;2.10;;;;;;;3.95;100.00;98186.57;105722;1257;73945;-67
2023/10/21 05:13:51;;;;;;;5.40;1.80;;;;;;;3.92;100.00;98192.38;105757;1253;60983;-66
2023/10/21 05:16:40;;;;;;;7.30;2.30;;;;;;;3.91;100.00;98189.80;105889;1253;60818;-68
2023/10/21 05:19:29;;;;;;;5.10;1.50;;;;;;;3.90;100.00;98187.27;105472;1253;73560;-69
2023/10/21 05:22:18;;;;;;;5.00;1.40;;;;;;;3.90;100.00;98194.86;105789;1252;67065;-67
2023/10/21 05:25:09;;;;;;;5.50;1.70;;;;;;;3.89;100.00;98203.48;105740;1253;72816;-67
2023/10/21 05:27:57;;;;;;;5.80;1.80;;;;;;;3.89;100.00;98211.57;105480;1255;60224;-67
2023/10/21 05:30:45;;;;;;;6.90;1.70;;;;;;;3.88;100.00;98217.23;105825;1256;60735;-66
2023/10/21 05:33:34;;;;;;;7.70;1.90;;;;;;;3.89;100.00;98231.55;105637;1253;71718;-67
2023/10/21 05:36:22;;;;;;;5.90;1.90;;;;;;;3.90;100.00;98243.27;105611;1254;69134;-69
2023/10/21 05:39:14;;;;;;;5.10;1.70;;;;;;;3.89;100.00;98254.88;105808;1257;72427;-67
2023/10/21 05:42:03;;;;;;;5.80;1.80;;;;;;;3.92;100.00;98257.67;104084;1254;1003749;-68
2023/10/21 05:44:52;;;;;;;6.20;1.90;;;;;;;3.93;100.00;98253.89;105688;1255;60870;-67
2023/10/21 05:47:40;;;;;;;5.60;1.90;;;;;;;3.94;100.00;98246.34;105703;1254;72538;-66
2023/10/21 05:50:31;;;;;;;5.40;1.60;;;;;;;3.94;100.00;98238.06;105808;1258;68208;-70
2023/10/21 05:53:20;;;;;;;5.70;2.00;;;;;;;3.94;100.00;98235.38;105662;1256;73763;-66
2023/10/21 05:56:12;;;;;;;6.50;2.20;;;;;;;3.95;100.00;98232.70;105535;1258;59229;-65
2023/10/21 05:59:00;;;;;;;5.30;2.00;;;;;;;3.95;100.00;98229.23;105512;1258;61818;-67
2023/10/21 06:01:49;;;;;;;5.80;1.70;;;;;;;3.95;100.00;98225.84;105660;1257;71773;-69
2023/10/21 06:04:38;;;;;;;6.10;1.90;;;;;;;3.97;100.00;98213.81;105722;1256;68432;-70
2023/10/21 06:07:31;;;;;;;7.20;1.90;;;;;;;3.96;100.00;98187.05;105705;1256;74517;-68
2023/10/21 06:10:22;;;;;;;8.70;2.20;;;;;;;3.87;100.00;98150.02;105637;1256;59363;-66
2023/10/21 06:13:14;;;;;;;5.90;2.00;;;;;;;3.90;100.00;98151.16;105704;1257;61136;-68
2023/10/21 06:16:08;;;;;;;6.10;1.70;;;;;;;3.96;100.00;98167.02;105296;1256;71093;-71
2023/10/21 06:18:56;;;;;;;4.70;1.50;;;;;;;3.98;100.00;98178.58;105312;1256;68109;-65
2023/10/21 06:21:45;;;;;;;5.30;1.80;;;;;;;3.98;100.00;98183.85;105553;1256;71700;-64
2023/10/21 06:24:34;;;;;;;5.30;1.80;;;;;;;3.98;100.00;98198.56;105587;1260;59477;-67
2023/10/21 06:27:25;;;;;;;5.50;1.60;;;;;;;3.98;100.00;98202.24;105556;1258;59354;-66
2023/10/21 06:30:18;;;;;;;4.90;1.60;;;;;;;4.00;100.00;98214.59;105538;1256;73968;-68
2023/10/21 06:33:09;;;;;;;5.70;1.60;;;;;;;4.01;100.00;98220.13;105544;1265;67318;-67
2023/10/21 06:35:58;;;;;;;5.30;1.70;;;;;;;4.01;100.00;98221.53;105809;1261;72593;-64
2023/10/21 06:38:49;;;;;;;5.70;1.90;;;;;;;4.02;100.00;98216.86;105876;1258;59323;-68
2023/10/21 06:41:39;;;;;;;5.90;2.10;;;;;;;4.04;100.00;98213.54;105672;1253;59667;-67
2023/10/21 06:44:28;;;;;;;5.90;1.90;;;;;;;4.04;100.00;98222.85;105659;1252;71459;-66
2023/10/21 06:47:16;;;;;;;6.70;2.00;;;;;;;4.05;100.00;98225.04;105886;1254;68145;-64
2023/10/21 06:50:11;;;;;;;6.10;1.80;;;;;;;4.07;100.00;98215.19;105606;1253;73205;-67
2023/10/21 06:53:01;;;;;;;6.50;1.70;;;;;;;4.11;100.00;98228.27;105626;1258;59349;-67
2023/10/21 06:55:49;;;;;;;7.30;1.70;;;;;;;4.16;100.00;98230.19;105648;1258;60626;-64
2023/10/21 06:58:40;;;;;;;5.50;1.80;;;;;;;4.18;100.00;98235.27;105872;1255;73605;-69
2023/10/21 07:01:30;;;;;;;5.40;1.60;;;;;;;4.20;100.00;98238.92;105959;1259;68196;-67
2023/10/21 07:04:20;;;;;;;5.40;1.60;;;;;;;4.21;100.00;98248.86;105803;1258;73170;-68
2023/10/21 07:07:12;;;;;;;6.10;1.90;;;;;;;4.22;100.00;98250.36;105617;1262;59450;-69
2023/10/21 07:10:04;;;;;;;6.30;2.30;;;;;;;4.24;100.00;98249.64;105593;1257;59625;-71
2023/10/21 07:12:56;;;;;;;5.50;1.60;;;;;;;4.25;100.00;98249.93;105665;1257;74151;-67
2023/10/21 07:15:47;;;;;;;5.60;1.70;;;;;;;4.26;100.00;98255.28;105582;1259;67906;-66
2023/10/21 07:18:39;;;;;;;6.10;2.20;;;;;;;4.30;100.00;98251.86;109089;1255;72508;-65
2023/10/21 07:21:26;;;;;;;6.20;2.10;;;;;;;4.33;100.00;98268.27;109164;1256;57989;-65
2023/10/21 07:24:16;;;;;;;5.50;2.10;;;;;;;4.35;100.00;98268.81;109127;1255;58755;-67
2023/10/21 07:27:04;;;;;;;7.20;2.40;;;;;;;4.39;100.00;98272.95;109184;1256;73085;-66
2023/10/21 07:29:52;;;;;;;6.70;2.10;;;;;;;4.38;100.00;98261.40;109322;1253;67876;-63
2023/10/21 07:32:39;;;;;;;6.50;2.30;;;;;;;4.46;100.00;98270.06;109335;1254;73738;-63
2023/10/21 07:35:27;;;;;;;6.10;2.20;;;;;;;4.53;100.00;98277.63;109424;1254;58264;-64
2023/10/21 07:38:15;;;;;;;7.00;2.50;;;;;;;4.57;100.00;98280.07;109491;1253;59080;-64
2023/10/21 07:41:13;;;;;;;7.30;2.30;;;;;;;4.58;100.00;98296.08;109432;1254;72983;-68
2023/10/21 07:44:01;;;;;;;6.50;2.10;;;;;;;4.63;100.00;98304.39;109503;1253;67970;-63
2023/10/21 07:46:51;;;;;;;7.70;2.60;;;;;;;4.63;100.00;98302.40;109400;1254;72494;-67
2023/10/21 07:49:40;;;;;;;8.00;2.80;;;;;;;4.63;100.00;98308.08;109428;1253;58240;-65
2023/10/21 07:52:28;;;;;;;7.60;3.00;;;;;;;4.66;100.00;98309.08;109384;1253;60270;-64
2023/10/21 07:55:16;;;;;;;8.50;3.40;;;;;;;4.66;100.00;98307.95;109464;1254;72199;-64
2023/10/21 07:58:03;;;;;;;11.30;4.10;;;;;;;4.72;100.00;98314.13;109454;1254;67903;-66
2023/10/21 08:00:51;;;;;;;9.90;3.70;;;;;;;4.73;100.00;98313.87;109395;1253;73386;-65
2023/10/21 08:03:39;;;;;;;9.00;3.70;;;;;;;4.76;100.00;98323.81;109372;1254;60642;-66
2023/10/21 08:06:27;;;;;;;7.90;3.40;;;;;;;4.77;100.00;98326.02;109533;1252;58759;-68
2023/10/21 08:09:16;;;;;;;12.20;4.60;;;;;;;4.79;100.00;98320.77;109557;1252;72161;-68
2023/10/21 08:12:04;;;;;;;11.60;4.20;;;;;;;4.83;100.00;98331.00;109330;1253;67155;-65
2023/10/21 08:14:52;;;;;;;7.20;2.90;;;;;;;4.90;100.00;98342.39;109508;1252;73437;-65
2023/10/21 08:17:40;;;;;;;8.00;2.70;;;;;;;4.90;100.00;98341.48;109521;1252;59147;-67
2023/10/21 08:20:27;;;;;;;6.70;2.30;;;;;;;4.87;100.00;98346.33;109456;1254;59342;-66
2023/10/21 08:23:16;;;;;;;7.40;2.80;;;;;;;4.86;100.00;98356.45;109513;1252;72161;-64
2023/10/21 08:26:04;;;;;;;6.80;2.50;;;;;;;4.87;100.00;98352.33;109418;1253;67711;-65
2023/10/21 08:28:51;;;;;;;6.50;2.10;;;;;;;4.87;100.00;98351.05;109434;1252;72714;-66
2023/10/21 08:31:40;;;;;;;6.60;2.20;;;;;;;4.88;100.00;98353.27;109329;1253;59580;-69
2023/10/21 08:34:28;;;;;;;5.90;2.20;;;;;;;4.90;100.00;98356.77;108477;1253;1002480;-64
2023/10/21 08:37:16;;;;;;;5.90;2.20;;;;;;;4.93;100.00;98353.05;109439;1252;72207;-70
2023/10/21 08:40:10;;;;;;;7.40;2.00;;;;;;;4.97;100.00;98323.89;109350;1253;68051;-66
2023/10/21 08:43:01;;;;;;;5.90;2.00;;;;;;;4.99;100.00;98349.57;109484;1253;72514;-68
2023/10/21 08:45:50;;;;;;;6.20;2.30;;;;;;;5.01;100.00;98361.91;109486;1252;58335;-67
2023/10/21 08:48:40;;;;;;;6.90;2.30;;;;;;;5.05;100.00;98340.24;109137;1256;60315;-65
2023/10/21 08:51:29;;;;;;;6.70;2.90;;;;;;;5.12;100.00;98321.99;109123;1257;72239;-63
2023/10/21 08:54:18;;;;;;;7.90;3.60;;;;;;;5.15;100.00;98309.03;109110;1256;67706;-64
2023/10/21 08:57:06;;;;;;;8.40;3.20;;;;;;;5.17;100.00;98344.44;109075;1256;71671;-66
2023/10/21 08:59:55;;;;;;;6.60;2.80;;;;;;;5.15;100.00;98365.02;109156;1256;57962;-65
2023/10/21 09:02:43;;;;;;;8.20;3.30;;;;;;;5.16;100.00;98355.54;109151;1256;60386;-67
2023/10/21 09:05:32;;;;;;;7.20;3.20;;;;;;;5.19;100.00;98338.84;109141;1256;70856;-64
2023/10/21 09:08:31;;;;;;;9.60;3.70;;;;;;;5.20;100.00;98337.09;109028;1257;67634;-66
2023/10/21 09:11:25;;;;;;;9.70;4.60;;;;;;;5.20;100.00;98360.19;109031;1257;72863;-66
2023/10/21 09:14:14;;;;;;;9.70;4.40;;;;;;;5.20;100.00;98398.66;109074;1257;59656;-65
2023/10/21 09:17:02;;;;;;;8.30;3.90;;;;;;;5.20;100.00;98394.83;109122;1257;58742;-65
2023/10/21 09:19:54;;;;;;;10.20;3.80;;;;;;;5.24;100.00;98366.46;109297;1254;73128;-64
2023/10/21 09:22:44;;;;;;;11.00;4.50;;;;;;;5.31;100.00;98353.60;109443;1255;67617;-66
2023/10/21 09:25:32;;;;;;;9.00;4.10;;;;;;;5.34;100.00;98377.13;109449;1253;71174;-65
2023/10/21 09:28:24;;;;;;;9.30;4.00;;;;;;;5.32;100.00;98368.99;109427;1254;59683;-66
2023/10/21 09:31:13;;;;;;;8.80;3.90;;;;;;;5.34;100.00;98362.86;109516;1254;59365;-65
2023/10/21 09:34:01;;;;;;;8.20;3.70;;;;;;;5.34;100.00;98364.09;109374;1253;71177;-67
2023/10/21 09:36:48;;;;;;;7.60;3.40;;;;;;;5.35;100.00;98370.35;109526;1254;66945;-67
2023/10/21 09:39:43;;;;;;;8.10;4.10;;;;;;;5.38;100.00;98375.75;109441;1254;71327;-70
2023/10/21 09:42:31;;;;;;;7.80;3.50;;;;;;;5.45;100.00;98362.31;109266;1254;59435;-69
2023/10/21 09:45:21;;;;;;;8.10;2.90;;;;;;;5.53;100.00;98364.80;109249;1254;59098;-67
2023/10/21 09:48:14;;;;;;;6.20;2.50;;;;;;;5.65;100.00;98365.08;109302;1254;72224;-69
2023/10/21 09:51:09;;;;;;;7.80;3.40;;;;;;;5.70;100.00;98375.38;109339;1254;67904;-63
2023/10/21 09:54:03;;;;;;;8.70;3.60;;;;;;;5.71;100.00;98383.16;109218;1254;73289;-73
2023/10/21 09:56:53;;;;;;;8.70;4.40;;;;;;;5.73;100.00;98388.29;109165;1254;59225;-69
2023/10/21 09:59:44;;;;;;;7.70;3.50;;;;;;;5.75;100.00;98398.68;109268;1254;61065;-68
2023/10/21 10:02:38;;;;;;;8.40;3.80;;;;;;;5.79;100.00;98409.47;109241;1254;73292;-69
2023/10/21 10:05:27;;;;;;;7.60;4.00;;;;;;;5.79;100.00;98410.17;109491;1254;66722;-72
2023/10/21 10:08:18;;;;;;;8.30;4.10;;;;;;;5.81;100.00;98417.19;109301;1254;71458;-69
2023/10/21 10:11:11;;;;;;;8.30;4.00;;;;;;;5.84;100.00;98421.00;109447;1253;58194;-69
2023/10/21 10:14:01;;;;;;;7.70;3.50;;;;;;;5.93;100.00;98423.03;109450;1253;58748;-67
2023/10/21 10:16:49;;;;;;;9.10;3.20;;;;;;;5.95;100.00;98429.04;109483;1253;72989;-68
2023/10/21 10:19:43;;;;;;;8.10;3.40;;;;;;;6.00;100.00;98421.11;109410;1252;67562;-67
2023/10/21 10:22:33;;;;;;;7.70;3.30;;;;;;;6.05;100.00;98422.30;109500;1253;72880;-69
2023/10/21 10:25:30;;;;;;;8.10;3.50;;;;;;;6.05;100.00;98423.13;109266;1257;59406;-65
2023/10/21 10:28:21;;;;;;;8.50;3.80;;;;;;;6.11;100.00;98428.12;109465;1253;61615;-69
2023/10/21 10:31:09;;;;;;;7.50;3.40;;;;;;;6.14;100.00;98427.64;109337;1253;72380;-68
2023/10/21 10:34:00;;;;;;;7.10;3.40;;;;;;;6.17;100.00;98423.74;109521;1253;67639;-68
2023/10/21 10:36:47;;;;;;;7.50;3.20;;;;;;;6.19;100.00;98432.39;109301;1254;71920;-67
2023/10/21 10:39:38;;;;;;;7.20;3.50;;;;;;;6.21;100.00;98431.48;109450;1253;60763;-68
2023/10/21 10:42:31;;;;;;;8.60;3.30;;;;;;;6.29;100.00;98438.04;109471;1254;61035;-67
2023/10/21 10:45:18;;;;;;;6.80;2.90;;;;;;;6.37;100.00;98439.95;109466;1253;72197;-67
2023/10/21 10:48:07;;;;;;;6.90;3.10;;;;;;;6.40;100.00;98442.83;109520;1253;66841;-68
2023/10/21 10:51:15;;;;;;;7.20;3.50;;;;;;;6.47;100.00;98443.66;109379;1254;71436;-67
2023/10/21 10:54:05;;;;;;;8.10;3.90;;;;;;;6.56;100.00;98441.17;109450;1253;58434;-69
2023/10/21 10:56:57;;;;;;;7.20;3.50;;;;;;;6.55;100.00;98435.23;109432;1254;60528;-70
2023/10/21 10:59:46;;;;;;;7.40;4.00;;;;;;;6.57;100.00;98441.30;109511;1253;71990;-67
2023/10/21 11:02:43;;;;;;;7.40;3.90;;;;;;;6.60;100.00;98442.05;109313;1255;68684;-69
2023/10/21 11:05:31;;;;;;;8.50;4.10;;;;;;;6.64;100.00;98442.06;109334;1254;72760;-69
2023/10/21 11:08:19;;;;;;;8.20;3.90;;;;;;;6.68;100.00;98438.88;109285;1254;59559;-66
2023/10/21 11:11:10;;;;;;;9.20;3.70;;;;;;;6.70;100.00;98428.86;109276;1253;61016;-67
2023/10/21 11:13:58;;;;;;;8.70;4.20;;;;;;;6.76;100.00;98435.88;109429;1253;72386;-65
2023/10/21 11:16:49;;;;;;;8.90;4.20;;;;;;;6.85;100.00;98427.18;109316;1253;65833;-67
2023/10/21 11:19:37;;;;;;;9.70;4.30;;;;;;;6.90;100.00;98422.31;109250;1253;71239;-66
2023/10/21 11:22:26;;;;;;;8.90;4.50;;;;;;;6.99;100.00;98413.24;109316;1253;59593;-65
2023/10/21 11:25:14;;;;;;;9.90;5.20;;;;;;;7.07;100.00;98412.19;109526;1253;60289;-65
2023/10/21 11:28:05;;;;;;;8.80;4.70;;;;;;;7.14;100.00;98416.54;109464;1253;73436;-64
2023/10/21 11:30:54;;;;;;;9.90;4.90;;;;;;;7.21;100.00;98414.85;109314;1253;67619;-69
2023/10/21 11:33:41;;;;;;;10.20;5.00;;;;;;;7.25;100.00;98417.13;108507;1254;1002460;-65
2023/10/21 11:36:29;;;;;;;12.10;5.70;;;;;;;7.37;100.00;98413.92;109314;1253;59376;-65
2023/10/21 11:39:21;;;;;;;10.90;5.30;;;;;;;7.46;100.00;98420.71;109492;1253;58997;-65
2023/10/21 11:42:17;;;;;;;9.20;4.60;;;;;;;7.51;100.00;98428.14;109518;1253;72325;-65
2023/10/21 11:45:07;;;;;;;9.20;4.70;;;;;;;7.52;100.00;98437.27;109499;1253;66759;-65
2023/10/21 11:47:56;;;;;;;12.40;5.40;;;;;;;7.44;100.00;98444.02;109484;1253;72612;-65
2023/10/21 11:50:46;;;;;;;12.00;6.80;;;;;;;7.36;100.00;98450.71;109266;1253;60841;-66
2023/10/21 11:53:34;;;;;;;12.20;7.00;;;;;;;7.30;100.00;98456.83;109454;1253;58723;-66
2023/10/21 12:12:42;;;;;;;14.20;7.10;;;;;;;7.35;100.00;98448.31;109470;1253;72409;-66
2023/10/21 12:15:46;;;;;;;13.00;7.20;;;;;;;7.38;100.00;98444.66;109455;1253;68912;-65
2023/10/21 12:37:19;;;;;;;15.10;8.00;;;;;;;7.40;100.00;98472.39;109483;1254;59323;-66
2023/10/21 12:39:57;;;;;;;15.10;8.10;;;;;;;7.41;100.00;98474.13;109325;1254;60775;-65
2023/10/21 12:42:46;;;;;;;13.70;8.20;;;;;;;7.41;100.00;98470.08;109482;1256;71770;-66
2023/10/21 12:45:40;;;;;;;14.40;8.50;;;;;;;7.44;100.00;98473.95;109296;1255;69069;-66
2023/10/21 12:48:28;;;;;;;14.30;7.60;;;;;;;7.46;100.00;98485.13;108718;1254;1002963;-64
2023/10/21 12:51:16;;;;;;;15.70;8.60;;;;;;;7.42;100.00;98498.16;109306;1253;59438;-66
2023/10/21 12:54:09;;;;;;;17.60;8.40;;;;;;;7.40;100.00;98496.03;109474;1256;61104;-67
2023/10/21 12:57:02;;;;;;;15.10;8.90;;;;;;;7.37;100.00;98508.52;109215;1254;72157;-65
2023/10/21 12:59:50;;;;;;;14.60;8.20;;;;;;;7.32;100.00;98508.05;109326;1254;66908;-64
2023/10/21 13:02:40;;;;;;;17.00;9.40;;;;;;;7.32;100.00;98515.06;109123;1254;73420;-65
2023/10/21 13:05:29;;;;;;;14.70;8.00;;;;;;;7.33;100.00;98510.44;109164;1254;60322;-67
2023/10/21 13:08:19;;;;;;;17.80;9.00;;;;;;;7.30;100.00;98508.55;109237;1254;59010;-64
2023/10/21 13:11:08;;;;;;;16.90;8.30;;;;;;;7.31;100.00;98510.10;109207;1254;73226;-65
2023/10/21 13:13:56;;;;;;;17.00;9.10;;;;;;;7.35;100.00;98504.26;109338;1255;67601;-64
2023/10/21 13:16:45;;;;;;;15.20;7.60;;;;;;;7.40;100.00;98496.38;109163;1255;73538;-67
2023/10/21 13:19:34;;;;;;;15.90;8.70;;;;;;;7.35;100.00;98497.87;109255;1254;58065;-66
2023/10/21 13:22:25;;;;;;;16.20;8.40;;;;;;;7.32;100.00;98502.77;109255;1254;59262;-67
2023/10/21 13:25:17;;;;;;;18.20;9.70;;;;;;;7.30;100.00;98506.84;109126;1254;70976;-63
2023/10/21 13:28:14;;;;;;;16.10;8.90;;;;;;;7.32;100.00;98502.54;109234;1254;66433;-65
2023/10/21 13:31:05;;;;;;;16.50;9.60;;;;;;;7.35;100.00;98503.58;109193;1254;72509;-66
2023/10/21 13:33:54;;;;;;;16.80;9.50;;;;;;;7.34;100.00;98503.14;108586;1259;1002344;-65
2023/10/21 13:36:41;;;;;;;18.80;10.30;;;;;;;7.36;100.00;98501.73;109353;1254;61099;-67
2023/10/21 13:39:30;;;;;;;14.20;7.40;;;;;;;7.40;100.00;98508.08;109327;1256;71052;-66
2023/10/21 13:42:19;;;;;;;16.90;9.40;;;;;;;7.42;100.00;98508.73;109348;1254;68845;-65